createdAt,value
2017-08-24T09:51:41.582Z,74.3
2017-08-24T09:52:44.764Z,76.1
2017-08-24T09:53:46.724Z,76.4
2017-08-24T09:54:48.133Z,75.6
2017-08-24T09:55:50.094Z,76.4
2017-08-24T09:56:51.500Z,77.3
2017-08-24T09:57:52.984Z,77.2
2017-08-24T09:58:54.394Z,77.1
2017-08-24T09:59:56.262Z,77.4
2017-08-24T10:00:57.666Z,76.8
2017-08-24T10:01:59.169Z,76.3
2017-08-24T10:03:00.576Z,77.5
2017-08-24T10:04:02.035Z,76.2
2017-08-24T10:05:03.443Z,75.5
2017-08-24T10:06:04.851Z,74.9
2017-08-24T10:07:06.357Z,75.4
2017-08-24T10:08:07.765Z,75.8
2017-08-24T10:09:09.170Z,75.7
2017-08-24T10:10:10.678Z,76.3
2017-08-24T10:11:12.088Z,77.6
2017-08-24T10:12:13.494Z,75.8
2017-08-24T10:13:14.998Z,75.3
2017-08-24T10:14:16.403Z,74.9
2017-08-24T10:15:17.812Z,75.4
2017-08-24T10:16:19.320Z,75.3
2017-08-24T10:17:20.735Z,75.5
2017-08-24T10:18:22.138Z,75.7
2017-08-24T10:19:23.640Z,74.9
2017-08-24T10:20:25.047Z,75.0
2017-08-24T10:21:26.456Z,75.5
2017-08-24T10:22:27.963Z,74.9
2017-08-24T10:23:29.368Z,74.4
2017-08-24T10:24:30.773Z,73.6
2017-08-24T10:25:32.296Z,74.9
2017-08-24T10:26:33.687Z,74.1
2017-08-24T10:27:35.097Z,74.0
2017-08-24T10:28:36.541Z,73.2
2017-08-24T10:29:38.070Z,74.2
2017-08-24T10:30:39.522Z,74.9
2017-08-24T10:31:40.987Z,72.0
2017-08-24T10:32:42.326Z,72.3
2017-08-24T10:33:43.797Z,73.3
2017-08-24T10:34:45.205Z,74.3
2017-08-24T10:35:46.679Z,74.1
2017-08-24T10:36:48.084Z,73.5
2017-08-24T10:37:49.567Z,73.1
2017-08-24T10:38:51.354Z,73.2
2017-08-24T10:39:52.856Z,72.7
2017-08-24T10:40:54.264Z,73.3
2017-08-24T10:41:55.741Z,73.9
2017-08-24T10:42:57.142Z,73.4
2017-08-24T10:43:58.619Z,74.3
2017-08-24T10:45:00.022Z,75.3
2017-08-24T10:46:01.497Z,75.5
2017-08-24T10:47:02.906Z,74.4
2017-08-24T10:48:04.378Z,75.2
2017-08-24T10:49:05.785Z,74.1
2017-08-24T10:50:07.190Z,74.2
2017-08-24T10:51:08.699Z,75.3
2017-08-24T10:52:10.103Z,73.2
2017-08-24T10:53:11.507Z,72.4
2017-08-24T10:54:13.023Z,73.1
2017-08-24T10:55:14.428Z,74.5
2017-08-24T10:56:15.836Z,74.5
2017-08-24T10:57:17.342Z,75.3
2017-08-24T10:58:18.748Z,76.2
2017-08-24T10:59:20.153Z,74.5
2017-08-24T11:00:21.663Z,74.7
2017-08-24T11:01:23.068Z,75.5
2017-08-24T11:02:24.545Z,76.1
2017-08-24T11:03:25.950Z,76.2
2017-08-24T11:04:27.491Z,76.5
2017-08-24T11:05:28.886Z,75.2
2017-08-24T11:06:30.299Z,74.8
2017-08-24T11:07:31.746Z,76.0
2017-08-24T11:08:33.178Z,75.4
2017-08-24T11:09:34.590Z,75.5
2017-08-24T11:10:36.066Z,76.0
2017-08-24T11:11:37.472Z,75.7
2017-08-24T11:12:38.959Z,74.5
2017-08-24T11:13:40.347Z,73.2
2017-08-24T11:14:41.704Z,74.6
2017-08-24T11:15:43.188Z,75.9
2017-08-24T11:16:44.595Z,76.1
2017-08-24T11:17:46.000Z,75.9
2017-08-24T11:18:47.485Z,75.2
2017-08-24T11:19:48.890Z,75.7
2017-08-24T11:20:50.300Z,75.8
2017-08-24T11:21:51.810Z,75.5
2017-08-24T11:22:53.216Z,74.9
2017-08-24T11:23:54.623Z,73.3
2017-08-24T11:24:56.811Z,74.8
2017-08-24T11:25:58.234Z,75.1
2017-08-24T11:26:59.646Z,74.6
2017-08-24T11:28:01.069Z,73.6
2017-08-24T11:29:02.766Z,73.2
2017-08-24T11:30:04.184Z,73.1
2017-08-24T11:31:05.697Z,70.0
2017-08-24T11:32:07.105Z,69.6
2017-08-24T11:33:08.583Z,67.4
2017-08-24T11:34:09.989Z,64.7
2017-08-24T11:35:11.843Z,67.0
2017-08-24T11:36:13.254Z,66.4
2017-08-24T11:37:14.662Z,62.6
2017-08-24T11:38:16.089Z,64.0
2017-08-24T11:39:17.497Z,62.1
2017-08-24T11:40:18.903Z,62.2
2017-08-24T11:41:20.418Z,64.3
2017-08-24T11:42:21.822Z,62.9
2017-08-24T11:43:23.290Z,62.0
2017-08-24T11:44:24.701Z,61.3
2017-08-24T11:45:26.170Z,62.0
2017-08-24T11:46:27.595Z,62.8
2017-08-24T11:47:29.058Z,61.5
2017-08-24T11:48:30.467Z,60.0
2017-08-24T11:49:31.943Z,56.7
2017-08-24T11:50:33.350Z,55.9
2017-08-24T11:51:34.776Z,56.4
2017-08-24T11:52:36.478Z,57.5
2017-08-24T11:53:37.918Z,57.5
2017-08-24T11:54:39.321Z,57.8
2017-08-24T11:55:40.882Z,59.5
2017-08-24T11:56:42.299Z,57.7
2017-08-24T11:57:43.767Z,56.7
2017-08-24T11:58:45.179Z,57.8
2017-08-24T11:59:46.647Z,56.1
2017-08-24T12:00:48.077Z,57.4
2017-08-24T12:01:49.541Z,59.4
2017-08-24T12:02:50.950Z,59.6
2017-08-24T12:03:52.409Z,56.8
2017-08-24T12:04:53.820Z,57.7
2017-08-24T12:05:55.244Z,59.0
2017-08-24T12:06:56.761Z,57.9
2017-08-24T12:07:58.171Z,59.4
2017-08-24T12:08:59.600Z,60.3
2017-08-24T12:10:01.056Z,58.6
2017-08-24T12:11:02.467Z,60.1
2017-08-24T12:12:03.870Z,60.7
2017-08-24T12:13:05.374Z,61.1
2017-08-24T12:14:06.783Z,62.8
2017-08-24T12:15:08.296Z,62.3
2017-08-24T12:16:09.704Z,63.5
2017-08-24T12:17:11.113Z,63.8
2017-08-24T12:18:12.581Z,63.7
2017-08-24T12:19:14.007Z,61.2
2017-08-24T12:20:15.415Z,60.7
2017-08-24T12:21:16.899Z,54.3
2017-08-24T12:22:18.312Z,53.2
2017-08-24T12:23:19.782Z,53.3
2017-08-24T12:24:21.201Z,53.8
2017-08-24T12:25:22.662Z,51.9
2017-08-24T12:26:24.079Z,53.1
2017-08-24T12:27:25.489Z,52.5
2017-08-24T12:28:26.983Z,51.8
2017-08-24T12:29:28.394Z,53.4
2017-08-24T12:30:29.805Z,53.4
2017-08-24T12:31:31.303Z,54.3
2017-08-24T12:32:32.712Z,54.9
2017-08-24T12:33:34.119Z,55.6
2017-08-24T12:34:35.625Z,56.1
2017-08-24T12:35:37.036Z,59.4
2017-08-24T12:36:38.444Z,60.3
2017-08-24T12:37:39.949Z,61.8
2017-08-24T12:38:41.363Z,61.3
2017-08-24T12:39:42.846Z,62.0
2017-08-24T12:40:44.256Z,59.6
2017-08-24T12:41:45.712Z,56.7
2017-08-24T12:42:47.124Z,53.6
2017-08-24T12:43:48.699Z,55.4
2017-08-24T12:44:50.108Z,56.9
2017-08-24T12:45:51.519Z,56.8
2017-08-24T12:46:52.929Z,55.5
2017-08-24T12:47:54.345Z,56.7
2017-08-24T12:48:55.757Z,55.3
2017-08-24T12:49:57.236Z,52.5
2017-08-24T12:50:58.646Z,50.7
2017-08-24T12:52:00.053Z,51.4
2017-08-24T12:53:01.555Z,51.6
2017-08-24T12:54:02.965Z,52.1
2017-08-24T12:55:04.372Z,53.5
2017-08-24T12:56:05.875Z,54.4
2017-08-24T12:57:07.316Z,55.3
2017-08-24T12:58:08.769Z,56.0
2017-08-24T12:59:10.199Z,55.2
2017-08-24T13:00:11.605Z,55.5
2017-08-24T13:01:13.013Z,55.1
2017-08-24T13:02:14.542Z,55.1
2017-08-24T13:03:15.973Z,56.2
2017-08-24T13:04:17.379Z,57.8
2017-08-24T13:05:18.842Z,56.8
2017-08-24T13:06:20.250Z,56.0
2017-08-24T13:07:21.694Z,55.6
2017-08-24T13:08:23.164Z,55.6
2017-08-24T13:09:24.573Z,56.2
2017-08-24T13:10:25.997Z,59.2
2017-08-24T13:11:27.502Z,60.2
2017-08-24T13:12:29.059Z,61.1
2017-08-24T13:13:30.571Z,61.2
2017-08-24T13:14:31.992Z,57.2
2017-08-24T13:15:34.475Z,58.3
2017-08-24T13:16:35.884Z,59.2
2017-08-24T13:17:37.294Z,60.1
2017-08-24T13:18:38.797Z,59.1
2017-08-24T13:19:40.207Z,58.2
2017-08-24T13:20:41.614Z,58.9
2017-08-24T13:21:43.120Z,55.1
2017-08-24T13:22:44.524Z,56.7
2017-08-24T13:23:45.935Z,56.9
2017-08-24T13:24:47.342Z,56.7
2017-08-24T13:25:48.755Z,59.4
2017-08-24T13:26:50.160Z,60.4
2017-08-24T13:27:51.764Z,60.8
2017-08-24T13:28:53.169Z,62.0
2017-08-24T13:29:54.574Z,61.0
2017-08-24T13:30:56.085Z,62.7
2017-08-24T13:31:57.496Z,61.4
2017-08-24T13:32:58.903Z,62.3
2017-08-24T13:34:00.410Z,60.9
2017-08-24T13:35:01.815Z,61.4
2017-08-24T13:36:03.287Z,61.8
2017-08-24T13:37:04.692Z,63.6
2017-08-24T13:38:06.168Z,65.1
2017-08-24T13:39:07.997Z,62.8
2017-08-24T13:40:09.501Z,63.8
2017-08-24T13:41:10.930Z,65.3
2017-08-24T13:42:12.621Z,65.6
2017-08-24T13:43:14.028Z,63.8
2017-08-24T13:44:15.659Z,63.3
2017-08-24T13:45:17.077Z,64.0
2017-08-24T13:46:18.584Z,62.8
2017-08-24T13:47:19.992Z,64.1
2017-08-24T13:48:21.670Z,62.0
2017-08-24T13:49:23.073Z,63.7
2017-08-24T13:50:24.755Z,63.9
2017-08-24T13:51:26.170Z,61.5
2017-08-24T13:52:27.856Z,59.9
2017-08-24T13:53:29.245Z,60.3
2017-08-24T13:54:30.665Z,61.7
2017-08-24T13:55:32.160Z,62.3
2017-08-24T13:56:33.566Z,62.9
2017-08-24T13:57:34.982Z,65.1
2017-08-24T13:58:36.480Z,65.5
2017-08-24T13:59:37.917Z,64.7
2017-08-24T14:00:39.326Z,65.1
2017-08-24T14:01:41.009Z,64.0
2017-08-24T14:02:42.414Z,64.2
2017-08-24T14:03:43.819Z,65.5
2017-08-24T14:04:45.328Z,65.9
2017-08-24T14:05:46.736Z,66.0
2017-08-24T14:06:48.155Z,64.0
2017-08-24T14:07:49.726Z,62.9
2017-08-24T14:08:51.112Z,64.9
2017-08-24T14:09:52.632Z,62.5
2017-08-24T14:10:54.036Z,64.7
2017-08-24T14:11:55.513Z,64.8
2017-08-24T14:12:56.960Z,68.6
2017-08-24T14:13:58.366Z,67.4
2017-08-24T14:14:59.833Z,68.0
2017-08-24T14:16:01.242Z,67.9
2017-08-24T14:17:02.648Z,66.2
2017-08-24T14:18:04.157Z,65.9
2017-08-24T14:19:05.561Z,66.6
2017-08-24T14:20:06.975Z,65.6
2017-08-24T14:21:08.476Z,63.4
2017-08-24T14:22:09.881Z,62.0
2017-08-24T14:23:11.293Z,64.8
2017-08-24T14:24:12.797Z,63.8
2017-08-24T14:25:14.202Z,65.9
2017-08-24T14:26:15.612Z,66.8
2017-08-24T14:27:17.116Z,64.6
2017-08-24T14:28:18.521Z,65.3
2017-08-24T14:29:19.999Z,66.3
2017-08-24T14:30:21.407Z,66.1
2017-08-24T14:31:22.873Z,64.9
2017-08-24T14:32:24.283Z,65.5
2017-08-24T14:33:25.688Z,64.8
2017-08-24T14:34:27.197Z,65.1
2017-08-24T14:35:28.604Z,65.1
2017-08-24T14:36:30.010Z,64.2
2017-08-24T14:37:31.520Z,64.7
2017-08-24T14:38:32.931Z,66.2
2017-08-24T14:39:34.414Z,67.3
2017-08-24T14:40:35.822Z,66.8
2017-08-24T14:41:37.282Z,67.3
2017-08-24T14:42:38.687Z,68.1
2017-08-24T14:43:40.162Z,67.8
2017-08-24T14:44:41.572Z,67.6
2017-08-24T14:45:43.041Z,67.2
2017-08-24T14:46:44.457Z,68.2
2017-08-24T14:47:45.923Z,68.6
2017-08-24T14:48:47.332Z,67.6
2017-08-24T14:49:48.736Z,66.5
2017-08-24T14:50:50.310Z,66.2
2017-08-24T14:51:51.716Z,66.1
2017-08-24T14:52:53.121Z,67.5
2017-08-24T14:53:54.563Z,67.4
2017-08-24T14:54:55.971Z,68.6
2017-08-24T14:55:57.444Z,68.3
2017-08-24T14:56:58.853Z,67.2
2017-08-24T14:58:00.336Z,64.9
2017-08-24T14:59:01.742Z,63.3
2017-08-24T15:00:03.204Z,64.9
2017-08-24T15:01:04.616Z,67.2
2017-08-24T15:02:06.089Z,66.8
2017-08-24T15:03:07.494Z,67.4
2017-08-24T15:04:08.970Z,67.1
2017-08-24T15:05:10.460Z,67.3
2017-08-24T15:06:11.865Z,67.5
2017-08-24T15:07:13.275Z,67.8
2017-08-24T15:08:14.730Z,67.3
2017-08-24T15:09:16.133Z,67.4
2017-08-24T15:10:17.546Z,67.5
2017-08-24T15:11:19.052Z,68.5
2017-08-24T15:12:20.454Z,68.4
2017-08-24T15:13:21.862Z,68.7
2017-08-24T15:14:23.373Z,67.7
2017-08-24T15:15:24.786Z,66.7
2017-08-24T15:16:26.189Z,67.2
2017-08-24T15:17:28.552Z,68.0
2017-08-24T15:18:30.554Z,68.5
2017-08-24T15:19:32.600Z,68.5
2017-08-24T15:20:34.568Z,68.5
2017-08-24T15:21:36.317Z,68.4
2017-08-24T15:22:37.720Z,68.8
2017-08-24T15:23:39.313Z,69.9
2017-08-24T15:24:40.719Z,68.0
2017-08-24T15:25:42.127Z,67.1
2017-08-24T15:26:43.642Z,64.8
2017-08-24T15:27:45.051Z,65.3
2017-08-24T15:28:46.470Z,67.2
2017-08-24T15:29:47.944Z,67.6
2017-08-24T15:30:49.354Z,67.7
2017-08-24T15:31:50.829Z,68.8
2017-08-24T15:32:52.234Z,68.3
2017-08-24T15:33:53.638Z,68.5
2017-08-24T15:34:55.146Z,68.5
2017-08-24T15:35:56.551Z,67.8
2017-08-24T15:36:57.958Z,68.6
2017-08-24T15:37:59.468Z,67.1
2017-08-24T15:39:00.870Z,66.6
2017-08-24T15:40:02.275Z,65.0
2017-08-24T15:41:03.786Z,66.5
2017-08-24T15:42:05.193Z,67.7
2017-08-24T15:43:06.601Z,68.6
2017-08-24T15:44:08.109Z,69.4
2017-08-24T15:45:09.515Z,69.2
2017-08-24T15:46:10.920Z,68.4
2017-08-24T15:47:12.432Z,68.3
2017-08-24T15:48:13.917Z,70.4
2017-08-24T15:49:15.320Z,70.9
2017-08-24T15:50:16.958Z,68.8
2017-08-24T15:51:18.357Z,69.3
2017-08-24T15:52:19.851Z,70.0
2017-08-24T15:53:21.268Z,70.4
2017-08-24T15:54:22.926Z,71.1
2017-08-24T15:55:24.337Z,72.3
2017-08-24T15:56:25.803Z,71.5
2017-08-24T15:57:27.221Z,71.4
2017-08-24T15:58:28.691Z,72.0
2017-08-24T15:59:30.094Z,71.7
2017-08-24T16:00:31.562Z,73.1
2017-08-24T16:01:32.967Z,72.8
2017-08-24T16:02:34.649Z,73.0
2017-08-24T16:03:36.057Z,72.8
2017-08-24T16:04:37.463Z,73.0
2017-08-24T16:05:38.971Z,71.9
2017-08-24T16:06:40.393Z,71.5
2017-08-24T16:07:41.825Z,71.0
2017-08-24T16:08:43.292Z,69.7
2017-08-24T16:09:44.695Z,69.3
2017-08-24T16:10:46.108Z,69.8
2017-08-24T16:11:47.612Z,70.0
2017-08-24T16:12:49.026Z,71.2
2017-08-24T16:13:50.430Z,67.8
2017-08-24T16:14:52.163Z,69.4
2017-08-24T16:15:53.566Z,69.1
2017-08-24T16:16:55.224Z,67.8
2017-08-24T16:17:56.637Z,68.2
2017-08-24T16:18:58.104Z,68.5
2017-08-24T16:19:59.508Z,69.6
2017-08-24T16:21:00.913Z,70.0
2017-08-24T16:22:02.423Z,69.4
2017-08-24T16:23:03.835Z,68.2
2017-08-24T16:24:05.236Z,69.2
2017-08-24T16:25:06.767Z,68.8
2017-08-24T16:26:08.159Z,68.9
2017-08-24T16:27:09.628Z,69.4
2017-08-24T16:28:11.043Z,69.8
2017-08-24T16:29:12.513Z,70.0
2017-08-24T16:30:13.926Z,70.4
2017-08-24T16:31:15.331Z,70.5
2017-08-24T16:32:16.827Z,71.1
2017-08-24T16:33:18.236Z,70.8
2017-08-24T16:34:19.639Z,71.2
2017-08-24T16:35:21.150Z,71.7
2017-08-24T16:36:22.557Z,72.0
2017-08-24T16:37:23.964Z,71.7
2017-08-24T16:38:25.471Z,71.9
2017-08-24T16:39:26.874Z,71.8
2017-08-24T16:40:28.278Z,72.3
2017-08-24T16:41:29.792Z,72.2
2017-08-24T16:42:31.217Z,71.6
2017-08-24T16:43:32.620Z,71.9
2017-08-24T16:44:34.113Z,72.6
2017-08-24T16:45:35.515Z,73.5
2017-08-24T16:46:36.994Z,72.4
2017-08-24T16:47:38.399Z,73.2
2017-08-24T16:48:39.874Z,72.7
2017-08-24T16:49:41.278Z,71.7
2017-08-24T16:50:42.684Z,71.9
2017-08-24T16:51:44.085Z,70.8
2017-08-24T16:52:45.493Z,70.7
2017-08-24T16:53:46.916Z,70.2
2017-08-24T16:54:48.327Z,71.6
2017-08-24T16:55:49.729Z,72.0
2017-08-24T16:56:51.131Z,71.7
2017-08-24T16:57:52.551Z,72.1
2017-08-24T16:58:54.135Z,73.2
2017-08-24T16:59:55.543Z,72.7
2017-08-24T17:00:56.939Z,72.7
2017-08-24T17:01:58.365Z,72.8
2017-08-24T17:02:59.802Z,72.7
2017-08-24T17:04:01.275Z,72.6
2017-08-24T17:05:02.889Z,72.6
2017-08-24T17:06:04.291Z,72.5
2017-08-24T17:07:05.771Z,72.7
2017-08-24T17:08:07.174Z,71.6
2017-08-24T17:09:08.654Z,72.6
2017-08-24T17:10:10.313Z,72.7
2017-08-24T17:11:11.789Z,72.8
2017-08-24T17:12:13.382Z,72.7
2017-08-24T17:13:14.785Z,72.9
2017-08-24T17:14:16.189Z,72.9
2017-08-24T17:15:17.707Z,72.7
2017-08-24T17:16:19.106Z,72.7
2017-08-24T17:17:20.584Z,72.7
2017-08-24T17:18:21.998Z,72.6
2017-08-24T17:19:23.468Z,72.8
2017-08-24T17:20:24.868Z,73.0
2017-08-24T17:21:26.349Z,73.1
2017-08-24T17:22:27.751Z,73.7
2017-08-24T17:23:29.231Z,72.9
2017-08-24T17:24:30.634Z,73.2
2017-08-24T17:25:32.071Z,72.7
2017-08-24T17:26:33.575Z,72.4
2017-08-24T17:27:34.977Z,72.5
2017-08-24T17:28:36.383Z,72.5
2017-08-24T17:29:37.916Z,73.1
2017-08-24T17:30:39.355Z,73.6
2017-08-24T17:31:40.757Z,72.6
2017-08-24T17:32:42.218Z,73.0
2017-08-24T17:33:43.620Z,72.9
2017-08-24T17:34:45.056Z,72.6
2017-08-24T17:35:46.538Z,72.3
2017-08-24T17:36:47.948Z,72.5
2017-08-24T17:37:49.357Z,73.0
2017-08-24T17:38:50.865Z,73.2
2017-08-24T17:39:52.380Z,72.4
2017-08-24T17:40:53.786Z,72.9
2017-08-24T17:41:55.284Z,72.6
2017-08-24T17:42:56.691Z,72.6
2017-08-24T17:43:58.162Z,72.6
2017-08-24T17:44:59.567Z,72.5
2017-08-24T17:46:01.042Z,72.9
2017-08-24T17:47:02.441Z,73.0
2017-08-24T17:48:04.051Z,73.0
2017-08-24T17:49:05.453Z,73.0
2017-08-24T17:50:06.906Z,73.3
2017-08-24T17:51:08.319Z,73.4
2017-08-24T17:52:09.727Z,74.1
2017-08-24T17:53:11.228Z,74.1
2017-08-24T17:54:12.688Z,73.9
2017-08-24T17:55:14.091Z,74.1
2017-08-24T17:56:15.549Z,73.9
2017-08-24T17:57:16.952Z,74.2
2017-08-24T17:58:18.429Z,74.4
2017-08-24T17:59:19.830Z,74.9
2017-08-24T18:00:21.311Z,74.9
2017-08-24T18:01:22.709Z,75.5
2017-08-24T18:02:24.191Z,75.4
2017-08-24T18:03:25.591Z,75.4
2017-08-24T18:04:27.072Z,75.8
2017-08-24T18:05:28.472Z,75.6
2017-08-24T18:06:29.952Z,75.6
2017-08-24T18:07:31.375Z,75.9
2017-08-24T18:08:32.889Z,75.8
2017-08-24T18:09:34.267Z,76.0
2017-08-24T18:10:35.714Z,75.7
2017-08-24T18:11:37.116Z,75.4
2017-08-24T18:12:38.592Z,76.5
2017-08-24T18:13:39.997Z,76.1
2017-08-24T18:14:41.472Z,76.5
2017-08-24T18:15:42.893Z,76.5
2017-08-24T18:16:44.359Z,76.0
2017-08-24T18:17:45.759Z,76.0
2017-08-24T18:18:47.235Z,76.2
2017-08-24T18:19:48.638Z,76.0
2017-08-24T18:20:50.039Z,76.4
2017-08-24T18:21:51.453Z,76.1
2017-08-24T18:22:52.911Z,76.5
2017-08-24T18:23:54.318Z,76.3
2017-08-24T18:24:55.774Z,76.0
2017-08-24T18:25:57.173Z,76.1
2017-08-24T18:26:58.574Z,76.2
2017-08-24T18:27:59.996Z,76.5
2017-08-24T18:29:01.394Z,76.2
2017-08-24T18:30:02.798Z,76.3
2017-08-24T18:31:04.217Z,76.3
2017-08-24T18:32:05.612Z,76.3
2017-08-24T18:33:07.102Z,76.2
2017-08-24T18:34:08.500Z,76.5
2017-08-24T18:35:09.973Z,76.4
2017-08-24T18:36:11.386Z,76.5
2017-08-24T18:37:12.876Z,76.4
2017-08-24T18:38:14.271Z,76.9
2017-08-24T18:39:16.049Z,76.6
2017-08-24T18:40:17.453Z,76.6
2017-08-24T18:41:18.853Z,76.9
2017-08-24T18:42:20.360Z,76.3
2017-08-24T18:43:21.762Z,76.1
2017-08-24T18:44:23.157Z,76.3
2017-08-24T18:45:25.131Z,76.0
2017-08-24T18:46:26.532Z,76.2
2017-08-24T18:47:27.973Z,75.9
2017-08-24T18:48:29.489Z,77.0
2017-08-24T18:49:30.957Z,77.5
2017-08-24T18:50:32.419Z,77.0
2017-08-24T18:51:34.001Z,77.2
2017-08-24T18:52:35.437Z,77.0
2017-08-24T18:53:36.965Z,77.1
2017-08-24T18:54:38.362Z,77.2
2017-08-24T18:55:39.900Z,77.5
2017-08-24T18:56:41.300Z,77.8
2017-08-24T18:57:42.773Z,77.6
2017-08-24T18:58:44.226Z,78.5
2017-08-24T18:59:45.663Z,78.6
2017-08-24T19:00:47.062Z,78.7
2017-08-24T19:01:48.652Z,78.0
2017-08-24T19:02:50.051Z,78.2
2017-08-24T19:03:51.449Z,78.0
2017-08-24T19:04:52.973Z,78.0
2017-08-24T19:05:54.369Z,78.3
2017-08-24T19:06:55.764Z,78.6
2017-08-24T19:07:57.294Z,78.4
2017-08-24T19:08:58.753Z,78.6
2017-08-24T19:10:00.314Z,78.9
2017-08-24T19:11:02.024Z,79.3
2017-08-24T19:12:03.423Z,78.9
2017-08-24T19:13:05.107Z,78.9
2017-08-24T19:14:06.509Z,78.7
2017-08-24T19:15:08.201Z,79.0
2017-08-24T19:16:09.602Z,78.8
2017-08-24T19:17:11.002Z,79.2
2017-08-24T19:18:12.716Z,78.9
2017-08-24T19:19:14.167Z,79.0
2017-08-24T19:20:15.570Z,78.8
2017-08-24T19:21:17.244Z,78.8
2017-08-24T19:22:18.640Z,79.6
2017-08-24T19:23:20.347Z,79.5
2017-08-24T19:24:21.747Z,79.0
2017-08-24T19:25:23.412Z,79.9
2017-08-24T19:26:24.814Z,79.8
2017-08-24T19:27:26.224Z,80.6
2017-08-24T19:28:27.962Z,80.4
2017-08-24T19:29:29.349Z,80.3
2017-08-24T19:30:30.753Z,80.4
2017-08-24T19:31:32.480Z,80.5
2017-08-24T19:32:33.892Z,80.3
2017-08-24T19:33:35.354Z,80.1
2017-08-24T19:34:36.770Z,80.4
2017-08-24T19:35:38.433Z,80.5
2017-08-24T19:36:39.829Z,80.5
2017-08-24T19:37:41.247Z,80.3
2017-08-24T19:38:42.980Z,80.3
2017-08-24T19:39:44.374Z,80.2
2017-08-24T19:40:45.773Z,80.2
2017-08-24T19:41:47.495Z,80.3
2017-08-24T19:42:48.891Z,80.2
2017-08-24T19:43:50.470Z,80.2
2017-08-24T19:44:51.906Z,80.2
2017-08-24T19:45:53.464Z,80.2
2017-08-24T19:46:54.878Z,80.5
2017-08-24T19:47:56.537Z,80.4
2017-08-24T19:48:57.946Z,80.4
2017-08-24T19:50:01.870Z,80.7
2017-08-24T19:51:03.222Z,81.4
2017-08-24T19:52:05.442Z,81.6
2017-08-24T19:53:06.829Z,81.7
2017-08-24T19:54:08.356Z,81.6
2017-08-24T19:55:09.757Z,82.0
2017-08-24T19:56:11.338Z,81.7
2017-08-24T19:57:12.738Z,82.0
2017-08-24T19:58:14.136Z,81.8
2017-08-24T19:59:15.917Z,82.3
2017-08-24T20:00:17.541Z,82.4
2017-08-24T20:01:18.963Z,82.6
2017-08-24T20:02:20.594Z,82.2
2017-08-24T20:03:21.991Z,82.9
2017-08-24T20:04:23.389Z,83.0
2017-08-24T20:05:24.914Z,82.9
2017-08-24T20:06:26.314Z,83.1
2017-08-24T20:07:27.714Z,82.8
2017-08-24T20:08:29.267Z,82.4
2017-08-24T20:09:30.646Z,82.8
2017-08-24T20:10:32.043Z,82.3
2017-08-24T20:11:33.562Z,82.4
2017-08-24T20:12:34.959Z,82.4
2017-08-24T20:13:36.654Z,82.2
2017-08-24T20:14:38.053Z,82.2
2017-08-24T20:15:39.730Z,82.0
2017-08-24T20:16:41.128Z,82.4
2017-08-24T20:17:42.818Z,82.6
2017-08-24T20:18:44.210Z,82.6
2017-08-24T20:19:45.896Z,82.5
2017-08-24T20:20:47.296Z,82.6
2017-08-24T20:21:48.988Z,82.0
2017-08-24T20:22:50.384Z,81.8
2017-08-24T20:23:51.810Z,81.6
2017-08-24T20:24:53.508Z,82.0
2017-08-24T20:25:54.918Z,81.9
2017-08-24T20:26:56.314Z,81.9
2017-08-24T20:27:57.841Z,81.6
2017-08-24T20:28:59.235Z,81.8
2017-08-24T20:30:00.636Z,81.6
2017-08-24T20:31:02.150Z,81.6
2017-08-24T20:32:03.548Z,81.6
2017-08-24T20:33:04.945Z,81.7
2017-08-24T20:34:06.686Z,81.8
2017-08-24T20:35:08.080Z,81.7
2017-08-24T20:36:09.762Z,81.6
2017-08-24T20:37:11.161Z,81.8
2017-08-24T20:38:12.847Z,81.6
2017-08-24T20:39:14.243Z,81.5
2017-08-24T20:40:15.933Z,81.9
2017-08-24T20:41:17.332Z,81.9
2017-08-24T20:42:18.728Z,82.0
2017-08-24T20:43:20.254Z,82.1
2017-08-24T20:44:21.655Z,81.9
2017-08-24T20:45:23.057Z,82.5
2017-08-24T20:46:24.574Z,82.4
2017-08-24T20:47:25.972Z,82.4
2017-08-24T20:48:27.373Z,82.4
2017-08-24T20:49:28.896Z,82.4
2017-08-24T20:50:30.296Z,82.1
2017-08-24T20:51:31.695Z,82.2
2017-08-24T20:52:33.217Z,82.0
2017-08-24T20:53:34.615Z,82.1
2017-08-24T20:54:36.303Z,82.3
2017-08-24T20:55:37.700Z,82.4
2017-08-24T20:56:39.387Z,82.3
2017-08-24T20:57:40.785Z,83.1
2017-08-24T20:58:42.192Z,82.9
2017-08-24T20:59:43.708Z,83.0
2017-08-24T21:00:45.103Z,82.9
2017-08-24T21:01:46.505Z,82.8
2017-08-24T21:02:48.030Z,82.7
2017-08-24T21:03:49.448Z,83.4
2017-08-24T21:04:51.036Z,83.5
2017-08-24T21:05:52.432Z,83.3
2017-08-24T21:06:53.996Z,83.4
2017-08-24T21:07:55.394Z,83.5
2017-08-24T21:08:56.790Z,83.2
2017-08-24T21:09:58.315Z,83.2
2017-08-24T21:10:59.714Z,83.2
2017-08-24T21:12:01.114Z,83.6
2017-08-24T21:13:02.637Z,83.5
2017-08-24T21:14:04.047Z,83.5
2017-08-24T21:15:05.722Z,83.3
2017-08-24T21:16:07.120Z,83.7
2017-08-24T21:17:08.808Z,83.9
2017-08-24T21:18:10.207Z,83.5
2017-08-24T21:19:11.607Z,83.3
2017-08-24T21:20:13.128Z,83.7
2017-08-24T21:21:14.526Z,83.8
2017-08-24T21:22:15.965Z,83.8
2017-08-24T21:23:17.654Z,83.5
2017-08-24T21:24:19.057Z,83.9
2017-08-24T21:25:20.535Z,83.7
2017-08-24T21:26:21.934Z,83.5
2017-08-24T21:27:24.014Z,83.9
2017-08-24T21:28:25.411Z,84.2
2017-08-24T21:29:26.912Z,84.4
2017-08-24T21:30:28.309Z,84.2
2017-08-24T21:31:29.997Z,84.3
2017-08-24T21:32:31.397Z,84.2
2017-08-24T21:33:32.802Z,84.1
2017-08-24T21:34:35.092Z,84.2
2017-08-24T21:35:36.494Z,84.3
2017-08-24T21:36:37.884Z,84.2
2017-08-24T21:37:39.457Z,84.2
2017-08-24T21:38:40.871Z,84.6
2017-08-24T21:39:42.543Z,84.3
2017-08-24T21:40:43.941Z,84.6
2017-08-24T21:41:45.630Z,84.7
2017-08-24T21:42:47.026Z,84.2
2017-08-24T21:43:48.430Z,84.4
2017-08-24T21:44:49.949Z,84.0
2017-08-24T21:45:51.350Z,83.8
2017-08-24T21:46:52.753Z,84.6
2017-08-24T21:47:54.271Z,84.7
2017-08-24T21:48:55.675Z,83.9
2017-08-24T21:49:57.071Z,84.2
2017-08-24T21:50:58.592Z,84.2
2017-08-24T21:51:59.996Z,84.2
2017-08-24T21:53:01.424Z,84.2
2017-08-24T21:54:02.913Z,84.0
2017-08-24T21:55:04.314Z,84.6
2017-08-24T21:56:05.999Z,84.1
2017-08-24T21:57:07.395Z,84.0
2017-08-24T21:58:08.878Z,84.2
2017-08-24T21:59:10.278Z,84.0
2017-08-24T22:00:11.683Z,84.3
2017-08-24T22:01:13.200Z,84.2
2017-08-24T22:02:14.601Z,84.6
2017-08-24T22:03:16.003Z,84.7
2017-08-24T22:04:17.522Z,84.3
2017-08-24T22:05:18.919Z,84.5
2017-08-24T22:06:20.318Z,84.3
2017-08-24T22:07:21.714Z,84.4
2017-08-24T22:08:23.111Z,84.2
2017-08-24T22:09:24.726Z,84.6
2017-08-24T22:10:26.124Z,84.5
2017-08-24T22:11:27.741Z,84.2
2017-08-24T22:12:29.146Z,84.4
2017-08-24T22:13:30.548Z,84.1
2017-08-24T22:14:32.129Z,84.3
2017-08-24T22:15:33.528Z,85.1
2017-08-24T22:16:34.925Z,84.1
2017-08-24T22:17:36.450Z,84.3
2017-08-24T22:18:37.850Z,84.1
2017-08-24T22:19:39.246Z,85.1
2017-08-24T22:20:40.772Z,84.9
2017-08-24T22:21:42.171Z,84.6
2017-08-24T22:22:43.566Z,84.8
2017-08-24T22:23:45.092Z,84.9
2017-08-24T22:24:46.496Z,84.7
2017-08-24T22:25:47.976Z,84.6
2017-08-24T22:26:49.373Z,84.7
2017-08-24T22:27:50.863Z,84.6
2017-08-24T22:28:52.260Z,84.9
2017-08-24T22:29:53.658Z,84.9
2017-08-24T22:30:55.074Z,84.5
2017-08-24T22:31:56.472Z,84.6
2017-08-24T22:32:57.868Z,85.2
2017-08-24T22:33:59.291Z,84.9
2017-08-24T22:35:00.689Z,85.1
2017-08-24T22:36:02.095Z,85.4
2017-08-24T22:37:03.511Z,84.5
2017-08-24T22:38:04.932Z,85.1
2017-08-24T22:39:06.339Z,84.9
2017-08-24T22:40:07.830Z,85.1
2017-08-24T22:41:09.234Z,84.8
2017-08-24T22:42:10.714Z,84.5
2017-08-24T22:43:12.111Z,84.7
2017-08-24T22:44:13.516Z,85.3
2017-08-24T22:45:14.919Z,85.2
2017-08-24T22:46:16.371Z,85.7
2017-08-24T22:47:17.774Z,85.1
2017-08-24T22:48:19.252Z,85.3
2017-08-24T22:49:20.651Z,85.3
2017-08-24T22:50:22.187Z,85.2
2017-08-24T22:51:23.598Z,85.2
2017-08-24T22:52:25.013Z,84.7
2017-08-24T22:53:26.410Z,85.3
2017-08-24T22:54:27.894Z,85.5
2017-08-24T22:55:29.290Z,85.5
2017-08-24T22:56:30.774Z,85.4
2017-08-24T22:57:32.173Z,85.1
2017-08-24T22:58:33.655Z,85.3
2017-08-24T22:59:35.059Z,85.1
2017-08-24T23:00:36.462Z,85.5
2017-08-24T23:01:37.877Z,85.5
2017-08-24T23:02:39.267Z,85.6
2017-08-24T23:03:40.674Z,85.5
2017-08-24T23:04:42.113Z,85.8
2017-08-24T23:05:43.491Z,86.0
2017-08-24T23:06:44.978Z,85.6
2017-08-24T23:07:46.465Z,85.8
2017-08-24T23:08:48.333Z,86.0
2017-08-24T23:09:49.729Z,85.9
2017-08-24T23:10:51.142Z,85.6
2017-08-24T23:11:52.542Z,85.7
2017-08-24T23:12:54.024Z,85.7
2017-08-24T23:13:55.426Z,86.2
2017-08-24T23:14:56.905Z,86.5
2017-08-24T23:15:58.299Z,86.7
2017-08-24T23:16:59.784Z,86.7
2017-08-24T23:18:01.182Z,86.5
2017-08-24T23:19:02.666Z,86.2
2017-08-24T23:20:04.066Z,86.5
2017-08-24T23:21:05.544Z,86.2
2017-08-24T23:22:06.943Z,86.4
2017-08-24T23:23:08.439Z,86.7
2017-08-24T23:24:09.843Z,86.5
2017-08-24T23:25:11.318Z,86.8
2017-08-24T23:26:12.706Z,86.3
2017-08-24T23:27:14.189Z,86.7
2017-08-24T23:28:15.588Z,86.8
2017-08-24T23:29:17.069Z,86.4